sensor_id;sensor_type;location;lat;lon;timestamp;pressure;altitude;pressure_sealevel;temperature;humidity
55538;BME280;41383;51.418;7.286;2023-02-17T00:00:00;100263.50;;;9.40;94.29
55538;BME280;41383;51.418;7.286;2023-02-17T00:02:25;100268.22;;;9.45;94.91
55538;BME280;41383;51.418;7.286;2023-02-17T00:04:52;100269.84;;;9.46;95.12
55538;BME280;41383;51.418;7.286;2023-02-17T00:07:17;100269.78;;;9.58;94.52
55538;BME280;41383;51.418;7.286;2023-02-17T00:09:42;100280.66;;;9.58;94.67
55538;BME280;41383;51.418;7.286;2023-02-17T00:12:08;100267.50;;;9.50;94.36
55538;BME280;41383;51.418;7.286;2023-02-17T00:14:33;100264.00;;;9.54;94.95
55538;BME280;41383;51.418;7.286;2023-02-17T00:16:58;100262.69;;;9.57;94.39
55538;BME280;41383;51.418;7.286;2023-02-17T00:19:23;100259.41;;;9.55;94.63
55538;BME280;41383;51.418;7.286;2023-02-17T00:21:53;100256.59;;;9.50;95.08
55538;BME280;41383;51.418;7.286;2023-02-17T00:24:20;100250.97;;;9.56;94.83
55538;BME280;41383;51.418;7.286;2023-02-17T00:26:45;100248.00;;;9.58;94.32
55538;BME280;41383;51.418;7.286;2023-02-17T00:29:10;100248.25;;;9.56;94.22
55538;BME280;41383;51.418;7.286;2023-02-17T00:31:35;100250.16;;;9.56;95.18
55538;BME280;41383;51.418;7.286;2023-02-17T00:34:01;100254.88;;;9.61;94.50
55538;BME280;41383;51.418;7.286;2023-02-17T00:36:26;100245.97;;;9.65;94.52
55538;BME280;41383;51.418;7.286;2023-02-17T00:38:53;100238.28;;;9.62;94.62
55538;BME280;41383;51.418;7.286;2023-02-17T00:41:19;100242.50;;;9.53;94.60
55538;BME280;41383;51.418;7.286;2023-02-17T00:43:45;100239.38;;;9.61;94.66
55538;BME280;41383;51.418;7.286;2023-02-17T00:46:11;100230.03;;;9.57;94.78
55538;BME280;41383;51.418;7.286;2023-02-17T00:48:36;100224.09;;;9.60;94.62
55538;BME280;41383;51.418;7.286;2023-02-17T00:51:01;100218.16;;;9.63;94.84
55538;BME280;41383;51.418;7.286;2023-02-17T00:53:27;100219.22;;;9.62;94.76
55538;BME280;41383;51.418;7.286;2023-02-17T00:55:52;100230.69;;;9.64;95.25
55538;BME280;41383;51.418;7.286;2023-02-17T00:58:18;100226.16;;;9.53;95.21
55538;BME280;41383;51.418;7.286;2023-02-17T01:00:43;100212.03;;;9.56;95.31
55538;BME280;41383;51.418;7.286;2023-02-17T01:03:08;100224.00;;;9.55;95.79
55538;BME280;41383;51.418;7.286;2023-02-17T01:05:39;100224.59;;;9.57;96.18
55538;BME280;41383;51.418;7.286;2023-02-17T01:08:05;100216.34;;;9.52;96.45
55538;BME280;41383;51.418;7.286;2023-02-17T01:10:30;100215.84;;;9.55;96.41
55538;BME280;41383;51.418;7.286;2023-02-17T01:12:56;100222.03;;;9.50;96.41
55538;BME280;41383;51.418;7.286;2023-02-17T01:15:21;100218.81;;;9.53;96.25
55538;BME280;41383;51.418;7.286;2023-02-17T01:17:46;100211.81;;;9.57;96.51
55538;BME280;41383;51.418;7.286;2023-02-17T01:20:11;100207.75;;;9.60;96.37
55538;BME280;41383;51.418;7.286;2023-02-17T01:22:38;100205.28;;;9.58;96.56
55538;BME280;41383;51.418;7.286;2023-02-17T01:25:04;100197.44;;;9.62;96.07
55538;BME280;41383;51.418;7.286;2023-02-17T01:27:29;100202.81;;;9.57;96.03
55538;BME280;41383;51.418;7.286;2023-02-17T01:29:54;100193.25;;;9.72;96.21
55538;BME280;41383;51.418;7.286;2023-02-17T01:32:20;100194.72;;;9.62;96.52
55538;BME280;41383;51.418;7.286;2023-02-17T01:34:45;100185.00;;;9.49;97.15
55538;BME280;41383;51.418;7.286;2023-02-17T01:37:10;100193.25;;;9.54;97.43
55538;BME280;41383;51.418;7.286;2023-02-17T01:39:36;100191.94;;;9.57;97.31
55538;BME280;41383;51.418;7.286;2023-02-17T01:42:01;100182.84;;;9.51;97.67
55538;BME280;41383;51.418;7.286;2023-02-17T01:44:29;100191.84;;;9.52;97.56
55538;BME280;41383;51.418;7.286;2023-02-17T01:46:55;100189.72;;;9.54;97.60
55538;BME280;41383;51.418;7.286;2023-02-17T01:52:16;100178.81;;;9.54;98.17
55538;BME280;41383;51.418;7.286;2023-02-17T01:54:47;100183.34;;;9.65;97.51
55538;BME280;41383;51.418;7.286;2023-02-17T01:57:15;100169.47;;;9.67;97.42
55538;BME280;41383;51.418;7.286;2023-02-17T01:59:43;100162.88;;;9.63;97.68
55538;BME280;41383;51.418;7.286;2023-02-17T02:02:08;100166.50;;;9.68;97.77
55538;BME280;41383;51.418;7.286;2023-02-17T02:04:37;100164.03;;;9.67;97.61
55538;BME280;41383;51.418;7.286;2023-02-17T02:07:05;100161.41;;;9.55;98.19
55538;BME280;41383;51.418;7.286;2023-02-17T02:09:38;100160.31;;;9.56;98.58
55538;BME280;41383;51.418;7.286;2023-02-17T02:12:19;100159.00;;;9.58;98.43
55538;BME280;41383;51.418;7.286;2023-02-17T02:14:46;100151.75;;;9.64;98.25
55538;BME280;41383;51.418;7.286;2023-02-17T02:29:05;100147.38;;;9.63;97.71
55538;BME280;41383;51.418;7.286;2023-02-17T02:31:42;100154.72;;;9.63;98.40
55538;BME280;41383;51.418;7.286;2023-02-17T02:34:15;100150.69;;;9.65;97.95
55538;BME280;41383;51.418;7.286;2023-02-17T02:36:49;100154.47;;;9.64;97.66
55538;BME280;41383;51.418;7.286;2023-02-17T02:39:23;100161.00;;;9.63;98.12
55538;BME280;41383;51.418;7.286;2023-02-17T02:41:58;100163.97;;;9.62;98.52
55538;BME280;41383;51.418;7.286;2023-02-17T02:44:25;100140.94;;;9.69;97.59
55538;BME280;41383;51.418;7.286;2023-02-17T02:47:01;100146.44;;;9.75;97.54
55538;BME280;41383;51.418;7.286;2023-02-17T02:49:27;100139.94;;;9.76;97.05
55538;BME280;41383;51.418;7.286;2023-02-17T02:57:52;100114.91;;;9.79;96.62
55538;BME280;41383;51.418;7.286;2023-02-17T03:00:40;100116.19;;;9.71;96.66
55538;BME280;41383;51.418;7.286;2023-02-17T03:03:16;100121.47;;;9.78;96.31
55538;BME280;41383;51.418;7.286;2023-02-17T03:05:59;100115.63;;;9.91;96.02
55538;BME280;41383;51.418;7.286;2023-02-17T03:10:53;100108.03;;;9.93;95.08
55538;BME280;41383;51.418;7.286;2023-02-17T03:13:19;100105.31;;;9.93;95.21
55538;BME280;41383;51.418;7.286;2023-02-17T03:15:45;100102.59;;;9.93;95.27
55538;BME280;41383;51.418;7.286;2023-02-17T03:18:10;100107.28;;;9.98;95.17
55538;BME280;41383;51.418;7.286;2023-02-17T03:20:38;100107.59;;;9.79;95.40
55538;BME280;41383;51.418;7.286;2023-02-17T03:23:08;100106.25;;;9.82;95.55
55538;BME280;41383;51.418;7.286;2023-02-17T03:25:34;100113.19;;;9.73;95.42
55538;BME280;41383;51.418;7.286;2023-02-17T03:27:59;100115.50;;;9.81;95.53
55538;BME280;41383;51.418;7.286;2023-02-17T03:30:25;100110.72;;;9.88;95.23
55538;BME280;41383;51.418;7.286;2023-02-17T03:32:50;100114.81;;;9.91;95.07
55538;BME280;41383;51.418;7.286;2023-02-17T03:35:15;100104.75;;;9.91;94.98
55538;BME280;41383;51.418;7.286;2023-02-17T03:37:41;100101.13;;;9.86;94.78
55538;BME280;41383;51.418;7.286;2023-02-17T03:40:07;100100.97;;;9.92;94.74
55538;BME280;41383;51.418;7.286;2023-02-17T03:42:33;100097.09;;;9.88;94.51
55538;BME280;41383;51.418;7.286;2023-02-17T03:44:58;100101.97;;;9.86;94.98
55538;BME280;41383;51.418;7.286;2023-02-17T03:47:23;100114.00;;;9.90;94.66
55538;BME280;41383;51.418;7.286;2023-02-17T03:49:49;100095.63;;;10.03;94.24
55538;BME280;41383;51.418;7.286;2023-02-17T03:52:15;100109.19;;;9.98;94.08
55538;BME280;41383;51.418;7.286;2023-02-17T03:54:40;100111.84;;;9.92;94.39
55538;BME280;41383;51.418;7.286;2023-02-17T03:57:05;100111.28;;;9.90;93.93
55538;BME280;41383;51.418;7.286;2023-02-17T03:59:31;100124.28;;;10.06;93.79
55538;BME280;41383;51.418;7.286;2023-02-17T04:01:56;100126.28;;;10.15;93.46
55538;BME280;41383;51.418;7.286;2023-02-17T04:04:21;100130.59;;;10.11;93.04
55538;BME280;41383;51.418;7.286;2023-02-17T04:06:46;100123.31;;;10.17;93.18
55538;BME280;41383;51.418;7.286;2023-02-17T04:09:12;100128.66;;;10.07;92.49
55538;BME280;41383;51.418;7.286;2023-02-17T04:11:37;100132.63;;;10.21;92.77
55538;BME280;41383;51.418;7.286;2023-02-17T04:14:03;100128.13;;;10.10;92.61
55538;BME280;41383;51.418;7.286;2023-02-17T04:16:28;100127.81;;;10.06;93.05
55538;BME280;41383;51.418;7.286;2023-02-17T04:18:54;100127.81;;;10.06;92.89
55538;BME280;41383;51.418;7.286;2023-02-17T04:21:19;100132.03;;;9.97;93.14
55538;BME280;41383;51.418;7.286;2023-02-17T04:23:44;100125.00;;;10.01;93.39
55538;BME280;41383;51.418;7.286;2023-02-17T04:26:10;100115.94;;;9.95;92.60
55538;BME280;41383;51.418;7.286;2023-02-17T04:28:39;100123.44;;;10.05;92.69
55538;BME280;41383;51.418;7.286;2023-02-17T04:31:05;100130.09;;;10.14;92.23
55538;BME280;41383;51.418;7.286;2023-02-17T04:33:31;100131.59;;;10.05;92.20
55538;BME280;41383;51.418;7.286;2023-02-17T04:35:56;100136.00;;;10.06;92.37
55538;BME280;41383;51.418;7.286;2023-02-17T04:38:27;100124.53;;;10.04;92.29
55538;BME280;41383;51.418;7.286;2023-02-17T04:40:54;100115.91;;;10.12;92.05
55538;BME280;41383;51.418;7.286;2023-02-17T04:43:21;100114.19;;;10.06;92.32
55538;BME280;41383;51.418;7.286;2023-02-17T04:45:46;100102.16;;;10.02;91.71
55538;BME280;41383;51.418;7.286;2023-02-17T04:48:11;100094.25;;;10.00;92.60
55538;BME280;41383;51.418;7.286;2023-02-17T04:50:37;100103.16;;;9.96;92.34
55538;BME280;41383;51.418;7.286;2023-02-17T04:53:02;100109.31;;;10.08;91.86
55538;BME280;41383;51.418;7.286;2023-02-17T04:55:27;100096.75;;;10.07;92.07
55538;BME280;41383;51.418;7.286;2023-02-17T04:57:53;100103.22;;;10.01;92.17
55538;BME280;41383;51.418;7.286;2023-02-17T05:00:19;100080.09;;;10.03;92.23
55538;BME280;41383;51.418;7.286;2023-02-17T05:02:44;100085.28;;;10.05;92.37
55538;BME280;41383;51.418;7.286;2023-02-17T05:05:10;100087.44;;;10.03;92.15
55538;BME280;41383;51.418;7.286;2023-02-17T05:07:39;100077.13;;;10.05;92.20
55538;BME280;41383;51.418;7.286;2023-02-17T05:10:04;100077.66;;;10.02;92.55
55538;BME280;41383;51.418;7.286;2023-02-17T05:12:30;100075.50;;;10.04;92.53
55538;BME280;41383;51.418;7.286;2023-02-17T05:14:55;100083.72;;;10.09;91.98
55538;BME280;41383;51.418;7.286;2023-02-17T05:17:20;100084.84;;;10.13;92.03
55538;BME280;41383;51.418;7.286;2023-02-17T05:19:45;100093.34;;;10.17;91.65
55538;BME280;41383;51.418;7.286;2023-02-17T05:22:11;100112.09;;;10.13;91.93
55538;BME280;41383;51.418;7.286;2023-02-17T05:24:36;100103.75;;;10.20;91.56
55538;BME280;41383;51.418;7.286;2023-02-17T05:27:01;100111.47;;;10.28;90.79
55538;BME280;41383;51.418;7.286;2023-02-17T05:29:26;100106.84;;;10.29;90.90
55538;BME280;41383;51.418;7.286;2023-02-17T05:31:52;100105.16;;;10.23;90.94
55538;BME280;41383;51.418;7.286;2023-02-17T05:34:17;100098.13;;;10.27;90.98
55538;BME280;41383;51.418;7.286;2023-02-17T05:36:42;100092.28;;;10.18;91.32
55538;BME280;41383;51.418;7.286;2023-02-17T05:39:07;100097.91;;;10.11;91.13
55538;BME280;41383;51.418;7.286;2023-02-17T05:41:33;100084.38;;;10.16;91.18
55538;BME280;41383;51.418;7.286;2023-02-17T05:43:58;100084.69;;;10.20;91.11
55538;BME280;41383;51.418;7.286;2023-02-17T05:46:23;100093.41;;;10.22;91.06
55538;BME280;41383;51.418;7.286;2023-02-17T05:48:48;100090.25;;;10.08;91.53
55538;BME280;41383;51.418;7.286;2023-02-17T05:51:14;100090.97;;;10.21;91.84
55538;BME280;41383;51.418;7.286;2023-02-17T05:53:41;100097.03;;;10.28;91.13
55538;BME280;41383;51.418;7.286;2023-02-17T05:56:07;100101.44;;;10.34;90.76
55538;BME280;41383;51.418;7.286;2023-02-17T05:58:32;100102.47;;;10.28;91.35
55538;BME280;41383;51.418;7.286;2023-02-17T06:00:57;100082.56;;;10.27;90.67
55538;BME280;41383;51.418;7.286;2023-02-17T06:03:22;100082.25;;;10.24;91.34
55538;BME280;41383;51.418;7.286;2023-02-17T06:05:48;100077.91;;;10.23;90.95
55538;BME280;41383;51.418;7.286;2023-02-17T06:08:13;100077.63;;;10.24;91.31
55538;BME280;41383;51.418;7.286;2023-02-17T06:10:40;100078.13;;;10.21;91.17
55538;BME280;41383;51.418;7.286;2023-02-17T06:13:06;100071.22;;;10.13;91.96
55538;BME280;41383;51.418;7.286;2023-02-17T06:15:31;100075.41;;;10.21;91.77
55538;BME280;41383;51.418;7.286;2023-02-17T06:17:57;100072.06;;;10.14;92.20
55538;BME280;41383;51.418;7.286;2023-02-17T06:20:23;100074.28;;;10.17;91.97
55538;BME280;41383;51.418;7.286;2023-02-17T06:22:48;100081.69;;;10.22;91.92
55538;BME280;41383;51.418;7.286;2023-02-17T06:25:13;100069.78;;;10.28;91.75
55538;BME280;41383;51.418;7.286;2023-02-17T06:27:39;100077.25;;;10.15;91.79
55538;BME280;41383;51.418;7.286;2023-02-17T06:30:06;100068.31;;;10.20;92.06
55538;BME280;41383;51.418;7.286;2023-02-17T06:32:32;100067.31;;;10.26;92.16
55538;BME280;41383;51.418;7.286;2023-02-17T06:34:58;100076.22;;;10.22;92.19
55538;BME280;41383;51.418;7.286;2023-02-17T06:37:24;100083.34;;;10.23;92.51
55538;BME280;41383;51.418;7.286;2023-02-17T06:39:49;100083.84;;;10.20;92.79
55538;BME280;41383;51.418;7.286;2023-02-17T06:42:14;100078.22;;;10.04;92.83
55538;BME280;41383;51.418;7.286;2023-02-17T06:44:40;100083.59;;;9.99;93.67
55538;BME280;41383;51.418;7.286;2023-02-17T06:47:05;100068.91;;;10.00;93.56
55538;BME280;41383;51.418;7.286;2023-02-17T06:49:30;100056.44;;;10.04;93.71
55538;BME280;41383;51.418;7.286;2023-02-17T06:51:55;100067.94;;;10.11;93.92
55538;BME280;41383;51.418;7.286;2023-02-17T06:54:21;100086.38;;;10.04;94.00
55538;BME280;41383;51.418;7.286;2023-02-17T06:56:46;100083.41;;;10.06;93.82
55538;BME280;41383;51.418;7.286;2023-02-17T06:59:11;100085.88;;;10.07;94.04
55538;BME280;41383;51.418;7.286;2023-02-17T07:01:37;100083.22;;;10.12;93.87
55538;BME280;41383;51.418;7.286;2023-02-17T07:04:03;100078.69;;;10.23;93.50
55538;BME280;41383;51.418;7.286;2023-02-17T07:06:28;100083.59;;;10.21;93.32
55538;BME280;41383;51.418;7.286;2023-02-17T07:08:54;100084.84;;;10.13;94.27
55538;BME280;41383;51.418;7.286;2023-02-17T07:11:19;100077.47;;;10.09;94.68
55538;BME280;41383;51.418;7.286;2023-02-17T07:13:45;100075.50;;;10.04;95.95
55538;BME280;41383;51.418;7.286;2023-02-17T07:16:12;100071.19;;;10.08;95.99
55538;BME280;41383;51.418;7.286;2023-02-17T07:18:38;100083.72;;;10.09;96.33
55538;BME280;41383;51.418;7.286;2023-02-17T07:21:05;100088.53;;;10.02;96.94
55538;BME280;41383;51.418;7.286;2023-02-17T07:23:31;100078.28;;;10.09;97.43
55538;BME280;41383;51.418;7.286;2023-02-17T07:26:03;100090.88;;;9.93;97.84
55538;BME280;41383;51.418;7.286;2023-02-17T07:28:29;100094.47;;;9.99;98.06
55538;BME280;41383;51.418;7.286;2023-02-17T07:30:54;100088.22;;;9.98;98.22
55538;BME280;41383;51.418;7.286;2023-02-17T07:33:19;100086.38;;;10.04;97.98
55538;BME280;41383;51.418;7.286;2023-02-17T07:35:45;100099.06;;;10.15;97.94
55538;BME280;41383;51.418;7.286;2023-02-17T07:38:10;100117.75;;;10.07;97.61
55538;BME280;41383;51.418;7.286;2023-02-17T07:40:37;100107.03;;;10.00;97.60
55538;BME280;41383;51.418;7.286;2023-02-17T07:43:03;100096.97;;;10.00;98.13
55538;BME280;41383;51.418;7.286;2023-02-17T07:45:28;100090.16;;;10.03;98.15
55538;BME280;41383;51.418;7.286;2023-02-17T07:47:54;100079.66;;;10.12;98.11
55538;BME280;41383;51.418;7.286;2023-02-17T07:50:19;100077.81;;;10.18;97.30
55538;BME280;41383;51.418;7.286;2023-02-17T07:52:45;100077.91;;;10.23;97.14
55538;BME280;41383;51.418;7.286;2023-02-17T07:55:10;100077.91;;;10.23;97.17
55538;BME280;41383;51.418;7.286;2023-02-17T07:57:35;100079.09;;;10.10;97.13
55538;BME280;41383;51.418;7.286;2023-02-17T08:00:01;100078.69;;;10.23;97.19
55538;BME280;41383;51.418;7.286;2023-02-17T08:02:26;100075.94;;;10.18;97.09
55538;BME280;41383;51.418;7.286;2023-02-17T08:04:51;100072.94;;;10.20;97.31
55538;BME280;41383;51.418;7.286;2023-02-17T08:07:17;100070.78;;;10.22;97.15
55538;BME280;41383;51.418;7.286;2023-02-17T08:09:43;100066.34;;;10.15;97.22
55538;BME280;41383;51.418;7.286;2023-02-17T08:12:27;100069.81;;;10.33;96.70
55538;BME280;41383;51.418;7.286;2023-02-17T08:15:11;100066.66;;;10.19;96.99
55538;BME280;41383;51.418;7.286;2023-02-17T08:17:37;100070.16;;;10.14;97.52
55538;BME280;41383;51.418;7.286;2023-02-17T08:20:03;100073.25;;;10.23;97.28
55538;BME280;41383;51.418;7.286;2023-02-17T08:22:29;100059.41;;;10.25;96.88
55538;BME280;41383;51.418;7.286;2023-02-17T08:24:54;100069.78;;;10.28;96.41
55538;BME280;41383;51.418;7.286;2023-02-17T08:27:19;100068.94;;;10.27;96.24
55538;BME280;41383;51.418;7.286;2023-02-17T08:29:45;100077.38;;;10.26;95.91
55538;BME280;41383;51.418;7.286;2023-02-17T08:32:12;100078.00;;;10.33;95.93
55538;BME280;41383;51.418;7.286;2023-02-17T08:34:38;100065.75;;;10.36;95.27
55538;BME280;41383;51.418;7.286;2023-02-17T08:37:04;100056.19;;;10.33;96.21
55538;BME280;41383;51.418;7.286;2023-02-17T08:39:31;100067.00;;;10.23;96.30
55538;BME280;41383;51.418;7.286;2023-02-17T08:41:56;100058.16;;;10.38;95.69
55538;BME280;41383;51.418;7.286;2023-02-17T08:44:22;100062.44;;;10.28;96.18
55538;BME280;41383;51.418;7.286;2023-02-17T08:46:49;100054.38;;;10.39;94.95
55538;BME280;41383;51.418;7.286;2023-02-17T08:49:17;100052.41;;;10.34;95.61
55538;BME280;41383;51.418;7.286;2023-02-17T08:51:43;100058.47;;;10.42;95.62
55538;BME280;41383;51.418;7.286;2023-02-17T08:54:24;100053.72;;;10.32;96.05
55538;BME280;41383;51.418;7.286;2023-02-17T08:56:49;100056.81;;;10.41;96.13
55538;BME280;41383;51.418;7.286;2023-02-17T08:59:14;100056.81;;;10.41;96.31
55538;BME280;41383;51.418;7.286;2023-02-17T09:01:41;100068.03;;;10.44;95.60
55538;BME280;41383;51.418;7.286;2023-02-17T09:04:07;100069.00;;;10.55;94.38
55538;BME280;41383;51.418;7.286;2023-02-17T09:06:36;100051.69;;;10.72;94.21
55538;BME280;41383;51.418;7.286;2023-02-17T09:09:04;100063.13;;;10.69;93.97
55538;BME280;41383;51.418;7.286;2023-02-17T09:11:29;100056.25;;;10.61;93.82
55538;BME280;41383;51.418;7.286;2023-02-17T09:13:54;100062.59;;;10.72;93.21
55538;BME280;41383;51.418;7.286;2023-02-17T09:16:20;100071.34;;;10.74;93.77
55538;BME280;41383;51.418;7.286;2023-02-17T09:18:48;100073.59;;;10.82;93.00
55538;BME280;41383;51.418;7.286;2023-02-17T09:21:13;100059.34;;;10.70;93.72
55538;BME280;41383;51.418;7.286;2023-02-17T09:23:39;100067.97;;;10.61;93.53
55538;BME280;41383;51.418;7.286;2023-02-17T09:26:06;100073.00;;;10.75;93.12
55538;BME280;41383;51.418;7.286;2023-02-17T09:28:34;100067.84;;;10.79;93.38
55538;BME280;41383;51.418;7.286;2023-02-17T09:31:14;100073.13;;;10.91;92.68
55538;BME280;41383;51.418;7.286;2023-02-17T09:33:41;100063.63;;;10.93;92.30
55538;BME280;41383;51.418;7.286;2023-02-17T09:36:09;100072.63;;;10.94;92.38
55538;BME280;41383;51.418;7.286;2023-02-17T09:38:37;100070.00;;;11.04;92.07
55538;BME280;41383;51.418;7.286;2023-02-17T09:41:13;100072.44;;;11.06;92.19
55538;BME280;41383;51.418;7.286;2023-02-17T09:43:39;100083.75;;;11.20;91.57
55538;BME280;41383;51.418;7.286;2023-02-17T09:46:09;100078.09;;;11.32;89.81
55538;BME280;41383;51.418;7.286;2023-02-17T09:48:37;100071.50;;;11.23;90.43
55538;BME280;41383;51.418;7.286;2023-02-17T09:51:09;100072.09;;;11.30;89.97
55538;BME280;41383;51.418;7.286;2023-02-17T09:56:19;100067.25;;;11.42;89.79
55538;BME280;41383;51.418;7.286;2023-02-17T09:58:51;100057.94;;;11.38;89.00
55538;BME280;41383;51.418;7.286;2023-02-17T10:01:20;100083.91;;;11.41;89.65
55538;BME280;41383;51.418;7.286;2023-02-17T10:03:51;100091.03;;;11.47;89.56
55538;BME280;41383;51.418;7.286;2023-02-17T10:06:40;100075.25;;;11.54;89.15
55538;BME280;41383;51.418;7.286;2023-02-17T10:09:23;100079.59;;;11.55;89.18
55538;BME280;41383;51.418;7.286;2023-02-17T10:12:00;100077.44;;;11.58;89.29
55538;BME280;41383;51.418;7.286;2023-02-17T10:14:35;100071.53;;;11.71;88.37
55538;BME280;41383;51.418;7.286;2023-02-17T10:17:07;100071.53;;;11.76;88.58
55538;BME280;41383;51.418;7.286;2023-02-17T10:19:51;100070.13;;;11.68;88.96
55538;BME280;41383;51.418;7.286;2023-02-17T10:22:20;100083.50;;;11.65;88.72
55538;BME280;41383;51.418;7.286;2023-02-17T10:24:46;100083.00;;;11.73;88.49
55538;BME280;41383;51.418;7.286;2023-02-17T10:27:37;100089.59;;;11.83;88.71
55538;BME280;41383;51.418;7.286;2023-02-17T10:30:25;100098.34;;;11.85;87.36
55538;BME280;41383;51.418;7.286;2023-02-17T10:35:47;100092.81;;;11.69;88.42
55538;BME280;41383;51.418;7.286;2023-02-17T10:38:36;100103.75;;;11.74;89.00
55538;BME280;41383;51.418;7.286;2023-02-17T10:41:04;100120.13;;;11.69;88.31
55538;BME280;41383;51.418;7.286;2023-02-17T10:43:33;100109.69;;;11.61;89.12
55538;BME280;41383;51.418;7.286;2023-02-17T10:46:00;100096.06;;;11.66;88.97
55538;BME280;41383;51.418;7.286;2023-02-17T10:48:43;100089.75;;;11.65;89.21
55538;BME280;41383;51.418;7.286;2023-02-17T10:51:13;100068.22;;;11.69;89.38
55538;BME280;41383;51.418;7.286;2023-02-17T10:53:40;100086.78;;;11.67;89.34
55538;BME280;41383;51.418;7.286;2023-02-17T10:56:10;100087.91;;;11.71;89.51
55538;BME280;41383;51.418;7.286;2023-02-17T11:01:10;100081.38;;;11.77;88.72
55538;BME280;41383;51.418;7.286;2023-02-17T11:03:36;100081.38;;;11.77;89.15
55538;BME280;41383;51.418;7.286;2023-02-17T11:06:04;100080.28;;;11.78;89.20
55538;BME280;41383;51.418;7.286;2023-02-17T11:11:03;100086.59;;;11.84;88.44
55538;BME280;41383;51.418;7.286;2023-02-17T11:13:36;100072.72;;;11.91;88.12
55538;BME280;41383;51.418;7.286;2023-02-17T11:16:03;100059.03;;;11.91;88.25
55538;BME280;41383;51.418;7.286;2023-02-17T11:18:32;100043.47;;;11.91;87.99
55538;BME280;41383;51.418;7.286;2023-02-17T11:21:03;100054.63;;;11.79;88.89
55538;BME280;41383;51.418;7.286;2023-02-17T11:23:29;100036.63;;;11.89;88.34
55538;BME280;41383;51.418;7.286;2023-02-17T11:25:57;100035.53;;;11.85;87.73
55538;BME280;41383;51.418;7.286;2023-02-17T11:28:24;100043.72;;;11.90;87.88
55538;BME280;41383;51.418;7.286;2023-02-17T11:30:53;100044.88;;;11.99;87.61
55538;BME280;41383;51.418;7.286;2023-02-17T11:33:22;100050.91;;;12.07;86.97
55538;BME280;41383;51.418;7.286;2023-02-17T11:35:55;100037.78;;;12.03;86.96
55538;BME280;41383;51.418;7.286;2023-02-17T11:38:24;100047.41;;;12.17;86.26
55538;BME280;41383;51.418;7.286;2023-02-17T11:40:59;100038.69;;;12.20;86.90
55538;BME280;41383;51.418;7.286;2023-02-17T11:43:26;100041.16;;;12.21;86.11
55538;BME280;41383;51.418;7.286;2023-02-17T11:46:07;100031.06;;;12.32;85.50
55538;BME280;41383;51.418;7.286;2023-02-17T11:51:42;100043.88;;;12.26;85.21
55538;BME280;41383;51.418;7.286;2023-02-17T11:54:23;100045.00;;;12.41;84.66
55538;BME280;41383;51.418;7.286;2023-02-17T11:57:02;100029.72;;;12.61;83.98
55538;BME280;41383;51.418;7.286;2023-02-17T11:59:51;100054.06;;;12.57;83.28
55538;BME280;41383;51.418;7.286;2023-02-17T12:07:45;100033.03;;;12.79;82.14
55538;BME280;41383;51.418;7.286;2023-02-17T12:10:20;100024.00;;;12.73;82.45
55538;BME280;41383;51.418;7.286;2023-02-17T12:12:59;100015.78;;;12.57;81.98
55538;BME280;41383;51.418;7.286;2023-02-17T12:16:10;100020.97;;;12.48;81.95
55538;BME280;41383;51.418;7.286;2023-02-17T12:21:20;100006.72;;;12.25;83.27
55538;BME280;41383;51.418;7.286;2023-02-17T12:32:55;100025.38;;;12.55;82.39
55538;BME280;41383;51.418;7.286;2023-02-17T12:35:27;100010.84;;;12.44;83.19
55538;BME280;41383;51.418;7.286;2023-02-17T12:38:10;99996.91;;;12.56;82.78
55538;BME280;41383;51.418;7.286;2023-02-17T12:40:39;100022.63;;;12.44;83.69
55538;BME280;41383;51.418;7.286;2023-02-17T12:43:17;100024.78;;;12.42;83.65
55538;BME280;41383;51.418;7.286;2023-02-17T12:45:48;100013.00;;;12.31;84.17
55538;BME280;41383;51.418;7.286;2023-02-17T12:48:23;100009.19;;;12.32;84.02
55538;BME280;41383;51.418;7.286;2023-02-17T12:51:09;99994.69;;;12.32;84.66
55538;BME280;41383;51.418;7.286;2023-02-17T12:53:55;99997.97;;;12.39;84.56
55538;BME280;41383;51.418;7.286;2023-02-17T12:58:58;99999.38;;;12.36;84.47
55538;BME280;41383;51.418;7.286;2023-02-17T13:01:30;99996.88;;;12.35;84.86
55538;BME280;41383;51.418;7.286;2023-02-17T13:03:58;100012.47;;;12.40;84.57
55538;BME280;41383;51.418;7.286;2023-02-17T13:06:30;100013.28;;;12.35;85.06
55538;BME280;41383;51.418;7.286;2023-02-17T13:09:14;100012.75;;;12.38;84.88
55538;BME280;41383;51.418;7.286;2023-02-17T13:11:41;100011.66;;;12.39;84.47
55538;BME280;41383;51.418;7.286;2023-02-17T13:14:27;100024.22;;;12.35;84.53
55538;BME280;41383;51.418;7.286;2023-02-17T13:16:53;100020.13;;;12.37;85.30
55538;BME280;41383;51.418;7.286;2023-02-17T13:19:29;100011.41;;;12.41;85.02
55538;BME280;41383;51.418;7.286;2023-02-17T13:21:56;100024.78;;;12.37;85.22
55538;BME280;41383;51.418;7.286;2023-02-17T13:24:35;100029.44;;;12.42;85.36
55538;BME280;41383;51.418;7.286;2023-02-17T13:27:29;100027.25;;;12.39;85.82
55538;BME280;41383;51.418;7.286;2023-02-17T13:32:27;100030.53;;;12.46;84.56
55538;BME280;41383;51.418;7.286;2023-02-17T13:39:58;100033.00;;;12.47;85.25
55538;BME280;41383;51.418;7.286;2023-02-17T13:42:38;100045.56;;;12.43;85.91
55538;BME280;41383;51.418;7.286;2023-02-17T13:45:15;100037.09;;;12.55;85.74
55538;BME280;41383;51.418;7.286;2023-02-17T13:47:42;100043.13;;;12.52;84.81
55538;BME280;41383;51.418;7.286;2023-02-17T13:50:47;100062.28;;;12.52;84.66
55538;BME280;41383;51.418;7.286;2023-02-17T13:53:31;100054.59;;;12.44;85.64
55538;BME280;41383;51.418;7.286;2023-02-17T13:56:43;100045.28;;;12.45;85.72
55538;BME280;41383;51.418;7.286;2023-02-17T13:58:43;100038.19;;;12.44;85.97
55538;BME280;41383;51.418;7.286;2023-02-17T14:01:14;100041.75;;;12.49;85.99
55538;BME280;41383;51.418;7.286;2023-02-17T14:03:44;100053.53;;;12.50;85.14